Time;durP1;ratioP1;P1;durP2;ratioP2;P2;SDS_P1;SDS_P2;PMS_P1;PMS_P2;Temp;Humidity;BMP_temperature;BMP_pressure;BME280_temperature;BME280_humidity;BME280_pressure;Samples;Min_cycle;Max_cycle;Signal;HPM_P1;HPM_P2
2024/01/16 00:00:19;;;;;;;2.70;1.90;;;13.10;58.00;;;;;;5051951;28;20450;-74
2024/01/16 00:02:47;;;;;;;5.00;2.50;;;13.10;58.00;;;;;;5053199;28;20509;-74
2024/01/16 00:05:15;;;;;;;2.07;1.87;;;13.00;57.80;;;;;;5053816;28;20449;-74
2024/01/16 00:07:44;;;;;;;2.20;2.00;;;13.00;57.80;;;;;;5053754;28;20447;-74
2024/01/16 00:10:13;;;;;;;1.80;1.70;;;13.00;58.00;;;;;;5053296;28;20514;-74
2024/01/16 00:12:41;;;;;;;3.37;2.00;;;13.00;57.90;;;;;;5052346;28;20490;-73
2024/01/16 00:15:09;;;;;;;5.60;2.33;;;13.00;57.80;;;;;;5053570;28;20514;-74
2024/01/16 00:17:37;;;;;;;3.80;2.27;;;13.00;57.80;;;;;;5053740;28;20536;-75
2024/01/16 00:20:06;;;;;;;2.30;2.03;;;13.00;57.90;;;;;;5053691;28;20439;-75
2024/01/16 00:22:34;;;;;;;5.27;2.40;;;13.00;57.80;;;;;;5052593;28;20454;-73
2024/01/16 00:25:04;;;;;;;4.80;2.10;;;12.90;57.80;;;;;;5053187;28;20462;-75
2024/01/16 00:27:32;;;;;;;4.17;2.20;;;12.90;57.70;;;;;;5053167;28;20445;-75
2024/01/16 00:30:00;;;;;;;3.50;2.00;;;12.90;57.80;;;;;;5052891;28;20488;-76
2024/01/16 00:32:28;;;;;;;3.90;2.03;;;12.90;57.80;;;;;;5051374;28;20477;-75
2024/01/16 00:34:56;;;;;;;4.10;1.83;;;12.90;57.80;;;;;;5050086;28;20447;-75
2024/01/16 00:37:24;;;;;;;2.00;1.80;;;12.90;57.90;;;;;;5052206;28;20534;-75
2024/01/16 00:39:52;;;;;;;2.77;2.10;;;12.90;57.70;;;;;;5052523;28;20473;-75
2024/01/16 00:42:22;;;;;;;4.70;1.73;;;12.90;57.70;;;;;;5051829;28;20554;-76
2024/01/16 00:44:50;;;;;;;3.00;1.77;;;12.90;57.80;;;;;;5052793;28;20462;-76
2024/01/16 00:47:18;;;;;;;2.40;1.77;;;12.90;57.80;;;;;;5052080;28;20533;-75
2024/01/16 00:49:46;;;;;;;3.10;1.73;;;12.90;57.70;;;;;;5050395;28;20451;-76
2024/01/16 00:52:14;;;;;;;4.53;2.13;;;12.90;57.80;;;;;;5051291;28;20487;-75
2024/01/16 00:54:41;;;;;;;2.93;2.10;;;12.80;57.70;;;;;;5052320;28;20534;-77
2024/01/16 00:57:09;;;;;;;1.87;1.70;;;12.80;57.60;;;;;;5052081;28;20498;-76
2024/01/16 00:59:39;;;;;;;2.10;1.90;;;12.80;57.60;;;;;;5050477;28;20482;-75
2024/01/16 01:02:09;;;;;;;3.57;2.00;;;12.80;57.50;;;;;;5042202;28;20530;-77
2024/01/16 01:04:37;;;;;;;2.20;2.00;;;12.80;57.30;;;;;;5050814;28;20438;-75
2024/01/16 01:07:05;;;;;;;3.03;1.50;;;12.70;58.00;;;;;;5041188;28;20435;-76
2024/01/16 01:09:33;;;;;;;2.23;2.00;;;12.70;57.20;;;;;;5052184;28;20470;-76
2024/01/16 01:12:01;;;;;;;2.90;2.10;;;12.70;57.20;;;;;;5051613;28;20463;-74
2024/01/16 01:14:30;;;;;;;2.90;1.87;;;12.70;57.80;;;;;;5052133;28;20496;-74
2024/01/16 01:17:01;;;;;;;2.30;1.63;;;12.70;57.20;;;;;;5051919;28;20796;-75
2024/01/16 01:19:29;;;;;;;1.63;1.50;;;12.70;57.30;;;;;;5051020;28;20478;-76
2024/01/16 01:21:57;;;;;;;1.70;1.60;;;12.60;57.10;;;;;;5051192;28;20470;-76
2024/01/16 01:24:25;;;;;;;2.00;1.90;;;12.60;57.20;;;;;;5052031;28;20507;-76
2024/01/16 01:26:53;;;;;;;2.27;1.67;;;12.60;57.00;;;;;;5051704;28;20470;-76
2024/01/16 01:29:22;;;;;;;1.90;1.37;;;12.60;57.00;;;;;;5051899;28;20473;-77
2024/01/16 01:31:50;;;;;;;2.97;1.60;;;12.60;57.00;;;;;;5051543;28;20469;-76
2024/01/16 01:34:19;;;;;;;1.90;1.80;;;12.50;57.00;;;;;;5051497;28;20546;-75
2024/01/16 01:36:47;;;;;;;5.97;1.90;;;12.50;56.80;;;;;;5051661;28;20439;-74
2024/01/16 01:39:15;;;;;;;1.83;1.70;;;12.50;56.90;;;;;;5051776;28;20562;-76
2024/01/16 01:41:42;;;;;;;1.60;1.50;;;12.50;56.90;;;;;;5051465;28;20549;-75
2024/01/16 01:44:15;;;;;;;1.80;1.70;;;12.50;56.80;;;;;;5051393;28;20439;-75
2024/01/16 01:46:44;;;;;;;1.47;1.37;;;12.50;56.70;;;;;;5051913;28;20420;-75
2024/01/16 01:49:13;;;;;;;1.50;1.40;;;12.40;56.50;;;;;;5051791;28;20434;-75
2024/01/16 01:51:42;;;;;;;1.60;1.50;;;12.40;56.50;;;;;;5045217;28;20470;-76
2024/01/16 01:54:10;;;;;;;2.50;1.80;;;12.40;56.60;;;;;;5031534;28;20483;-74
2024/01/16 01:56:38;;;;;;;2.57;1.40;;;12.40;56.60;;;;;;5031285;28;20550;-75
2024/01/16 01:59:06;;;;;;;1.73;1.60;;;12.40;56.60;;;;;;5031657;28;20479;-75
2024/01/16 02:01:34;;;;;;;1.53;1.43;;;12.40;56.60;;;;;;5031414;28;20467;-75
2024/01/16 02:04:03;;;;;;;2.03;1.70;;;12.30;56.40;;;;;;5051705;28;20454;-75
2024/01/16 02:06:31;;;;;;;2.87;1.57;;;12.30;56.40;;;;;;5051354;28;20446;-75
2024/01/16 02:09:00;;;;;;;1.60;1.50;;;12.30;56.40;;;;;;5052036;28;20521;-74
2024/01/16 02:11:28;;;;;;;1.93;1.50;;;12.30;56.40;;;;;;5051053;28;20545;-75
2024/01/16 02:13:56;;;;;;;2.73;1.53;;;12.30;56.30;;;;;;5051615;28;20438;-75
2024/01/16 02:16:24;;;;;;;1.70;1.50;;;12.30;56.40;;;;;;5051419;28;20527;-74
2024/01/16 02:18:53;;;;;;;1.93;1.60;;;12.30;56.40;;;;;;5051211;28;20474;-75
2024/01/16 02:21:22;;;;;;;1.57;1.43;;;12.30;56.20;;;;;;5051108;28;20469;-76
2024/01/16 02:23:51;;;;;;;1.80;1.70;;;12.30;56.30;;;;;;5051876;28;20453;-74
2024/01/16 02:26:20;;;;;;;2.23;1.73;;;12.30;56.20;;;;;;5053785;28;20529;-75
2024/01/16 02:28:48;;;;;;;1.93;1.60;;;12.30;56.30;;;;;;5059750;28;20517;-75
2024/01/16 02:31:16;;;;;;;1.80;1.70;;;12.30;56.10;;;;;;5073509;28;20480;-76
2024/01/16 02:33:44;;;;;;;3.17;1.40;;;12.30;56.10;;;;;;5075310;28;20434;-76
2024/01/16 02:36:12;;;;;;;1.40;1.30;;;12.20;56.10;;;;;;5068578;28;20470;-76
2024/01/16 02:38:40;;;;;;;1.67;1.40;;;12.20;56.20;;;;;;5058710;28;20446;-76
2024/01/16 02:41:14;;;;;;;2.13;1.60;;;12.20;56.10;;;;;;5057785;28;20451;-77
2024/01/16 02:43:42;;;;;;;1.60;1.50;;;12.20;55.80;;;;;;5058853;28;20442;-76
2024/01/16 02:46:10;;;;;;;1.43;1.20;;;12.20;56.10;;;;;;5055938;28;20435;-76
2024/01/16 02:48:38;;;;;;;1.50;1.40;;;12.20;56.00;;;;;;5055570;28;20441;-76
2024/01/16 02:51:06;;;;;;;3.33;1.30;;;12.20;56.10;;;;;;5054760;28;20458;-76
2024/01/16 02:53:34;;;;;;;1.50;1.40;;;12.20;56.10;;;;;;5042220;28;20486;-75
2024/01/16 02:56:02;;;;;;;2.10;1.30;;;12.20;56.00;;;;;;5048953;28;20462;-76
2024/01/16 02:58:31;;;;;;;1.40;1.30;;;12.20;56.10;;;;;;5054485;28;20439;-75
2024/01/16 03:00:59;;;;;;;7.00;1.50;;;12.20;55.90;;;;;;5054265;28;20474;-74
2024/01/16 03:03:27;;;;;;;1.83;1.30;;;12.20;56.00;;;;;;5053650;28;20933;-76
2024/01/16 03:05:55;;;;;;;3.13;1.13;;;12.20;56.00;;;;;;5054601;28;20522;-76
2024/01/16 03:08:24;;;;;;;2.47;1.23;;;12.20;55.90;;;;;;5054382;28;20442;-75
2024/01/16 03:10:53;;;;;;;3.07;1.40;;;12.10;55.80;;;;;;5054274;28;20437;-76
2024/01/16 03:13:21;;;;;;;2.37;1.80;;;12.10;56.00;;;;;;5053919;28;20454;-75
2024/01/16 03:15:52;;;;;;;3.80;1.50;;;12.10;55.80;;;;;;5054288;28;20434;-75
2024/01/16 03:18:20;;;;;;;2.03;1.50;;;12.10;55.80;;;;;;5053642;28;20439;-76
2024/01/16 03:20:48;;;;;;;3.27;1.17;;;12.10;55.90;;;;;;5052082;28;20471;-76
2024/01/16 03:23:16;;;;;;;1.60;1.40;;;12.10;55.80;;;;;;5053986;28;20467;-76
2024/01/16 03:25:44;;;;;;;1.60;1.50;;;12.00;55.60;;;;;;5054264;28;20517;-76
2024/01/16 03:28:12;;;;;;;1.30;1.20;;;12.00;56.10;;;;;;5053900;28;20513;-75
2024/01/16 03:30:40;;;;;;;1.30;1.20;;;12.00;55.80;;;;;;5054096;28;20465;-76
2024/01/16 03:33:10;;;;;;;1.43;1.23;;;12.00;55.70;;;;;;5053359;28;20485;-76
2024/01/16 03:35:38;;;;;;;1.10;1.10;;;12.00;55.60;;;;;;5049190;28;20483;-74
2024/01/16 03:38:06;;;;;;;1.67;1.33;;;12.00;55.60;;;;;;5047832;28;20496;-75
2024/01/16 03:40:34;;;;;;;2.33;1.27;;;12.00;55.70;;;;;;5054321;28;20471;-77
2024/01/16 03:43:05;;;;;;;1.30;1.20;;;12.00;55.60;;;;;;5052422;28;20442;-77
2024/01/16 03:45:32;;;;;;;1.57;1.47;;;12.00;55.60;;;;;;5052052;28;20451;-77
2024/01/16 03:48:02;;;;;;;1.63;1.50;;;12.00;55.60;;;;;;5054023;28;20482;-76
2024/01/16 03:50:33;;;;;;;1.40;1.30;;;12.00;55.50;;;;;;5053778;28;20439;-76
2024/01/16 03:53:01;;;;;;;2.13;1.30;;;12.00;55.60;;;;;;5053002;28;20478;-76
2024/01/16 03:55:29;;;;;;;1.03;0.93;;;12.00;55.60;;;;;;5053831;28;20496;-77
2024/01/16 03:57:57;;;;;;;2.50;1.20;;;11.90;55.60;;;;;;5053844;28;20451;-76
2024/01/16 04:00:25;;;;;;;1.30;1.20;;;11.90;55.60;;;;;;5051352;28;20554;-75
2024/01/16 04:02:53;;;;;;;2.17;1.27;;;11.90;55.60;;;;;;5044587;28;20497;-75
2024/01/16 04:05:21;;;;;;;2.10;1.00;;;11.90;55.60;;;;;;5048348;28;20454;-75
2024/01/16 04:07:52;;;;;;;2.20;1.57;;;11.90;55.50;;;;;;5053399;28;20453;-75
2024/01/16 04:10:20;;;;;;;1.53;1.43;;;11.90;55.60;;;;;;5053356;28;20431;-76
2024/01/16 04:12:49;;;;;;;1.30;1.20;;;11.90;55.40;;;;;;5044417;28;20501;-74
2024/01/16 04:15:17;;;;;;;1.50;1.40;;;11.90;55.60;;;;;;5053126;28;20451;-76
2024/01/16 04:17:49;;;;;;;2.50;1.07;;;11.90;55.40;;;;;;5051775;28;20442;-76
2024/01/16 04:20:18;;;;;;;1.20;1.10;;;11.90;55.40;;;;;;5044288;28;20479;-76
2024/01/16 04:22:47;;;;;;;1.47;1.37;;;11.90;55.40;;;;;;5052008;28;20461;-77
2024/01/16 04:25:17;;;;;;;2.30;1.47;;;11.90;55.20;;;;;;5053027;28;20438;-76
2024/01/16 04:27:45;;;;;;;1.37;1.27;;;11.80;55.30;;;;;;5052704;28;20447;-75
2024/01/16 04:30:14;;;;;;;3.17;1.43;;;11.80;55.40;;;;;;5052640;28;20526;-75
2024/01/16 04:32:42;;;;;;;1.90;1.10;;;11.80;55.30;;;;;;5043873;28;20475;-76
2024/01/16 04:35:11;;;;;;;1.20;1.10;;;11.80;55.20;;;;;;5046804;28;20449;-76
2024/01/16 04:37:38;;;;;;;1.60;1.50;;;11.80;55.30;;;;;;5046485;28;20463;-76
2024/01/16 04:40:07;;;;;;;1.97;1.10;;;11.80;55.40;;;;;;5052163;28;20595;-75
2024/01/16 04:42:36;;;;;;;1.87;1.20;;;11.80;55.30;;;;;;5052176;28;20525;-75
2024/01/16 04:45:04;;;;;;;1.53;1.20;;;11.80;55.20;;;;;;5052386;28;20474;-76
2024/01/16 04:47:32;;;;;;;1.03;1.00;;;11.80;55.30;;;;;;5052675;28;20506;-76
2024/01/16 04:50:00;;;;;;;2.10;1.17;;;11.80;55.20;;;;;;5052661;28;20469;-77
2024/01/16 04:52:28;;;;;;;2.47;1.60;;;11.70;55.10;;;;;;5051896;28;20498;-76
2024/01/16 04:54:56;;;;;;;1.87;1.03;;;11.70;55.30;;;;;;5051893;28;20522;-76
2024/01/16 04:57:24;;;;;;;1.27;1.17;;;11.70;55.10;;;;;;5052258;28;20480;-75
2024/01/16 04:59:54;;;;;;;2.80;1.20;;;11.70;55.10;;;;;;5035733;28;20474;-75
2024/01/16 05:02:22;;;;;;;1.60;1.10;;;11.70;55.00;;;;;;5051854;28;20470;-75
2024/01/16 05:04:51;;;;;;;1.50;0.93;;;11.70;55.10;;;;;;5050696;28;20447;-76
2024/01/16 05:07:20;;;;;;;1.93;1.10;;;11.70;55.10;;;;;;5051910;28;20506;-75
2024/01/16 05:09:49;;;;;;;1.83;0.90;;;11.70;55.00;;;;;;5052256;28;20473;-75
2024/01/16 05:12:17;;;;;;;2.90;0.97;;;11.70;55.20;;;;;;5051724;28;20475;-76
2024/01/16 05:14:45;;;;;;;1.33;1.10;;;11.70;55.20;;;;;;5050667;28;20500;-75
2024/01/16 05:17:15;;;;;;;1.83;1.23;;;11.70;55.30;;;;;;5038386;28;20447;-77
2024/01/16 05:19:43;;;;;;;2.00;1.27;;;11.80;55.40;;;;;;5052312;28;20469;-75
2024/01/16 05:22:11;;;;;;;4.27;1.33;;;11.80;55.30;;;;;;5048777;28;20541;-75
2024/01/16 05:24:39;;;;;;;1.77;1.57;;;11.80;55.40;;;;;;5049010;28;20462;-75
2024/01/16 05:27:09;;;;;;;1.17;1.00;;;11.80;55.40;;;;;;5051793;28;20522;-75
2024/01/16 05:29:38;;;;;;;2.80;1.50;;;11.80;55.40;;;;;;5052397;28;20434;-76
2024/01/16 05:32:11;;;;;;;0.90;0.90;;;11.80;55.50;;;;;;5051497;28;20463;-76
2024/01/16 05:34:41;;;;;;;1.17;1.07;;;11.80;55.70;;;;;;5051943;28;20446;-75
2024/01/16 05:37:09;;;;;;;1.90;1.40;;;11.80;55.60;;;;;;5048243;28;20512;-75
2024/01/16 05:39:37;;;;;;;1.10;1.10;;;11.80;55.50;;;;;;5048561;28;20472;-76
2024/01/16 05:42:06;;;;;;;1.70;1.30;;;11.80;55.60;;;;;;5051163;28;20555;-76
2024/01/16 05:44:34;;;;;;;3.00;1.40;;;11.80;55.70;;;;;;5051784;28;20446;-75
2024/01/16 05:47:03;;;;;;;1.30;1.03;;;11.80;55.70;;;;;;5035895;28;20446;-74
2024/01/16 05:49:31;;;;;;;1.80;1.17;;;11.80;55.60;;;;;;5052276;28;20579;-75
2024/01/16 05:52:01;;;;;;;3.77;1.30;;;11.90;55.80;;;;;;5053560;28;20457;-76
2024/01/16 05:54:28;;;;;;;1.83;0.90;;;11.80;55.80;;;;;;5063981;28;20467;-77
2024/01/16 05:56:56;;;;;;;1.20;1.10;;;11.90;56.00;;;;;;5072860;28;20439;-75
2024/01/16 05:59:25;;;;;;;1.93;1.33;;;11.90;55.80;;;;;;5063843;28;20427;-76
2024/01/16 06:01:53;;;;;;;2.17;1.33;;;11.90;56.60;;;;;;5054632;28;20482;-75
2024/01/16 06:04:21;;;;;;;1.27;1.10;;;11.90;55.90;;;;;;5053449;28;20430;-75
2024/01/16 06:06:49;;;;;;;3.77;1.50;;;11.90;56.10;;;;;;5052437;28;20442;-75
2024/01/16 06:09:19;;;;;;;3.63;1.13;;;11.90;56.10;;;;;;5054994;28;20452;-76
2024/01/16 06:11:47;;;;;;;1.30;1.20;;;11.90;56.20;;;;;;5055765;28;20470;-74
2024/01/16 06:14:21;;;;;;;1.57;1.47;;;11.90;56.00;;;;;;5055939;28;20563;-76
2024/01/16 06:16:50;;;;;;;1.80;1.23;;;11.90;56.00;;;;;;5055671;28;20470;-75
2024/01/16 06:19:18;;;;;;;2.40;1.43;;;11.90;56.10;;;;;;5056336;28;20466;-76
2024/01/16 06:21:46;;;;;;;1.47;1.20;;;11.80;56.00;;;;;;5055012;28;20473;-76
2024/01/16 06:24:14;;;;;;;3.10;1.60;;;11.80;56.00;;;;;;5055807;28;21005;-76
2024/01/16 06:26:44;;;;;;;1.67;1.30;;;11.80;56.10;;;;;;5055528;28;20450;-76
2024/01/16 06:29:12;;;;;;;1.50;1.40;;;11.80;56.00;;;;;;5055797;28;20431;-76
2024/01/16 06:31:55;;;;;;;1.33;1.23;;;11.80;56.00;;;;;;5054327;28;20454;-76
2024/01/16 06:34:22;;;;;;;1.93;1.30;;;11.80;56.00;;;;;;5055160;28;20433;-76
2024/01/16 06:36:51;;;;;;;1.90;1.30;;;11.80;55.90;;;;;;5055825;28;20443;-75
2024/01/16 06:39:19;;;;;;;1.23;1.10;;;11.80;55.90;;;;;;5054802;28;20620;-77
2024/01/16 06:41:48;;;;;;;2.00;1.57;;;11.80;56.00;;;;;;5054225;28;20470;-76
2024/01/16 06:44:16;;;;;;;2.23;1.17;;;11.80;56.00;;;;;;5055424;28;20538;-75
2024/01/16 06:46:45;;;;;;;1.93;1.20;;;11.80;55.90;;;;;;5055266;28;20446;-76
2024/01/16 06:49:13;;;;;;;3.63;1.30;;;11.80;55.90;;;;;;5054952;28;20447;-77
2024/01/16 06:51:41;;;;;;;3.17;1.50;;;11.70;55.80;;;;;;5055811;28;20463;-76
2024/01/16 06:54:10;;;;;;;1.70;1.60;;;11.70;55.90;;;;;;5062764;28;20526;-76
2024/01/16 06:56:38;;;;;;;1.20;1.00;;;11.80;55.90;;;;;;5059442;28;20526;-76
2024/01/16 06:59:07;;;;;;;1.50;1.20;;;11.70;55.80;;;;;;5057411;28;20450;-75
2024/01/16 07:01:38;;;;;;;3.67;1.20;;;11.80;56.00;;;;;;5055741;28;20470;-76
2024/01/16 07:04:07;;;;;;;1.43;1.33;;;11.70;55.80;;;;;;5055432;28;20941;-76
2024/01/16 07:06:35;;;;;;;1.73;1.30;;;11.70;55.80;;;;;;5053615;28;20446;-76
2024/01/16 07:09:05;;;;;;;1.70;1.40;;;11.70;55.80;;;;;;5034782;28;20448;-76
2024/01/16 07:11:33;;;;;;;3.27;1.63;;;11.80;55.90;;;;;;5034190;28;20471;-75
2024/01/16 07:14:01;;;;;;;2.20;1.20;;;11.70;55.80;;;;;;5034853;28;20451;-76
2024/01/16 07:16:31;;;;;;;3.60;1.67;;;11.70;55.80;;;;;;5034762;28;20447;-76
2024/01/16 07:18:59;;;;;;;2.60;1.37;;;11.70;55.90;;;;;;5034384;28;20447;-75
2024/01/16 07:21:27;;;;;;;3.73;1.33;;;11.70;55.80;;;;;;5033060;28;20478;-76
2024/01/16 07:23:56;;;;;;;2.70;1.50;;;11.70;55.90;;;;;;5034384;28;20486;-75
2024/01/16 07:26:24;;;;;;;1.63;1.50;;;11.70;56.00;;;;;;5049966;28;20461;-76
2024/01/16 07:28:53;;;;;;;3.47;1.57;;;11.70;55.80;;;;;;5054853;28;20984;-76
2024/01/16 07:31:23;;;;;;;1.83;1.60;;;11.70;55.80;;;;;;5055423;28;20493;-75
2024/01/16 07:33:54;;;;;;;5.07;1.20;;;11.80;55.90;;;;;;5055526;28;20504;-77
2024/01/16 07:36:23;;;;;;;1.00;0.90;;;11.70;55.70;;;;;;5055054;28;20538;-76
2024/01/16 07:38:51;;;;;;;2.17;1.07;;;11.70;55.80;;;;;;5054923;28;20470;-75
2024/01/16 07:41:19;;;;;;;1.40;1.20;;;11.70;55.80;;;;;;5053833;28;20553;-75
2024/01/16 07:43:48;;;;;;;2.10;1.53;;;11.70;55.80;;;;;;5055066;28;20477;-75
2024/01/16 07:46:17;;;;;;;2.43;1.67;;;11.70;55.80;;;;;;5055373;28;20446;-76
2024/01/16 07:48:46;;;;;;;1.20;1.00;;;11.70;55.80;;;;;;5055881;28;20516;-76
2024/01/16 07:54:10;;;;;;;3.00;1.40;;;11.70;55.80;;;;;;5152692;27;20496;-76
2024/01/16 07:56:39;;;;;;;3.87;1.23;;;11.80;55.80;;;;;;5152871;27;20499;-76
2024/01/16 07:59:07;;;;;;;1.83;1.17;;;11.70;55.70;;;;;;5147916;27;20447;-77
2024/01/16 08:01:37;;;;;;;2.50;1.30;;;11.70;55.50;;;;;;5146452;27;20542;-76
2024/01/16 08:04:06;;;;;;;3.57;1.40;;;11.70;55.90;;;;;;5153135;27;20426;-76
2024/01/16 08:06:36;;;;;;;1.57;1.47;;;11.70;55.60;;;;;;5152123;27;20442;-76
2024/01/16 08:09:05;;;;;;;1.73;1.30;;;11.70;55.80;;;;;;5150822;27;20450;-75
2024/01/16 08:11:36;;;;;;;7.23;1.40;;;11.70;55.80;;;;;;5150346;27;20468;-76
2024/01/16 08:14:04;;;;;;;2.70;1.47;;;11.70;55.70;;;;;;5150403;27;20541;-77
2024/01/16 08:16:32;;;;;;;2.13;0.90;;;11.70;56.30;;;;;;5151703;27;20438;-77
2024/01/16 08:19:01;;;;;;;3.43;1.67;;;11.80;55.70;;;;;;5150568;27;20478;-76
2024/01/16 08:21:29;;;;;;;2.03;1.30;;;11.80;55.90;;;;;;5149306;27;20450;-75
2024/01/16 08:23:58;;;;;;;1.37;0.90;;;11.80;55.80;;;;;;5151647;27;20469;-77
2024/01/16 08:26:26;;;;;;;2.40;1.20;;;11.80;55.80;;;;;;5150961;27;20526;-76
2024/01/16 08:29:09;;;;;;;1.20;1.10;;;11.80;55.80;;;;;;5150821;27;20491;-75
2024/01/16 08:31:37;;;;;;;1.40;1.30;;;11.90;55.90;;;;;;5150450;27;20474;-75
2024/01/16 08:34:05;;;;;;;3.10;1.40;;;11.90;55.90;;;;;;5150312;27;20553;-77
2024/01/16 08:36:34;;;;;;;1.17;1.17;;;11.90;55.70;;;;;;5149055;27;20446;-77
2024/01/16 08:39:02;;;;;;;1.30;1.20;;;11.90;55.80;;;;;;5148994;27;20438;-76
2024/01/16 08:41:30;;;;;;;1.40;1.10;;;12.00;55.90;;;;;;5148279;27;20458;-77
2024/01/16 08:43:59;;;;;;;3.10;1.40;;;12.00;56.00;;;;;;5148776;27;20438;-76
2024/01/16 08:46:28;;;;;;;3.57;1.10;;;12.00;55.90;;;;;;5148545;27;20445;-77
2024/01/16 08:48:57;;;;;;;1.33;1.27;;;12.10;55.90;;;;;;5148954;27;20522;-78
2024/01/16 08:51:25;;;;;;;2.70;1.20;;;12.10;55.90;;;;;;5148390;27;20485;-77
2024/01/16 08:53:53;;;;;;;4.33;1.30;;;12.10;55.90;;;;;;5148419;27;20887;-76
2024/01/16 08:56:22;;;;;;;2.40;1.43;;;12.10;55.90;;;;;;5148759;27;20445;-77
2024/01/16 08:58:50;;;;;;;1.97;1.40;;;12.10;55.80;;;;;;5149170;27;20438;-77
2024/01/16 09:01:18;;;;;;;2.77;1.60;;;12.20;56.00;;;;;;5147940;27;20466;-77
2024/01/16 09:03:48;;;;;;;1.50;1.40;;;12.20;56.00;;;;;;5145396;27;20435;-77
2024/01/16 09:06:16;;;;;;;1.30;1.20;;;12.20;55.90;;;;;;5134634;27;20477;-77
2024/01/16 09:08:44;;;;;;;2.87;1.30;;;12.20;55.80;;;;;;5135096;27;20438;-78
2024/01/16 09:11:12;;;;;;;1.80;1.23;;;12.30;56.00;;;;;;5133278;27;20478;-78
2024/01/16 09:13:40;;;;;;;1.20;1.03;;;12.30;56.00;;;;;;5134547;27;20561;-77
2024/01/16 09:16:08;;;;;;;3.87;1.63;;;12.30;56.00;;;;;;5138484;27;20470;-81
2024/01/16 09:18:36;;;;;;;3.80;1.53;;;12.30;55.90;;;;;;5158324;27;20435;-81
2024/01/16 09:21:06;;;;;;;2.47;1.20;;;12.30;55.90;;;;;;5157684;27;20484;-83
2024/01/16 09:23:33;;;;;;;2.47;1.20;;;12.40;56.00;;;;;;5148330;27;20439;-77
2024/01/16 09:26:01;;;;;;;2.60;1.30;;;12.40;56.00;;;;;;5138455;27;20483;-79
2024/01/16 09:28:29;;;;;;;2.00;1.50;;;12.40;55.80;;;;;;5136665;27;20435;-79
2024/01/16 09:30:58;;;;;;;1.47;1.30;;;12.50;56.00;;;;;;5135355;27;20485;-80
2024/01/16 09:33:27;;;;;;;3.87;1.30;;;12.50;56.10;;;;;;5135746;27;20953;-78
2024/01/16 09:35:57;;;;;;;2.47;1.30;;;12.50;56.00;;;;;;5135636;27;20446;-75
2024/01/16 09:38:34;;;;;;;3.27;1.20;;;12.50;55.90;;;;;;5135860;27;20447;-77
2024/01/16 09:41:02;;;;;;;3.73;1.70;;;12.60;56.10;;;;;;5135197;27;20455;-77
2024/01/16 09:43:31;;;;;;;1.67;1.33;;;12.60;56.00;;;;;;5134884;27;20545;-79
2024/01/16 09:45:59;;;;;;;1.40;1.30;;;12.70;56.10;;;;;;5134271;27;20430;-77
2024/01/16 09:48:31;;;;;;;2.47;1.50;;;12.70;56.10;;;;;;5134175;27;20431;-77
2024/01/16 09:51:00;;;;;;;4.40;1.40;;;12.70;56.10;;;;;;5134767;27;20490;-78
2024/01/16 09:53:30;;;;;;;1.87;1.13;;;12.80;56.10;;;;;;5134331;27;20475;-76
2024/01/16 09:56:01;;;;;;;1.93;1.40;;;12.80;56.20;;;;;;5134360;27;20435;-77
2024/01/16 09:58:30;;;;;;;3.43;1.40;;;12.90;56.30;;;;;;5134601;27;20506;-77
2024/01/16 10:01:01;;;;;;;8.90;1.43;;;13.00;56.30;;;;;;5134515;27;20439;-76
2024/01/16 10:03:30;;;;;;;1.53;1.40;;;13.00;56.30;;;;;;5134255;27;20891;-77
2024/01/16 10:05:59;;;;;;;1.97;1.30;;;13.20;56.40;;;;;;5133737;27;20504;-78
2024/01/16 10:08:29;;;;;;;3.27;1.40;;;13.30;56.50;;;;;;5133784;27;20470;-78
2024/01/16 10:10:57;;;;;;;3.13;1.60;;;13.40;56.30;;;;;;5132623;27;20881;-80
2024/01/16 10:13:26;;;;;;;2.40;1.37;;;13.40;56.30;;;;;;5133272;27;20562;-77
2024/01/16 10:15:55;;;;;;;1.93;1.40;;;13.50;56.30;;;;;;5132432;27;20449;-79
2024/01/16 10:18:24;;;;;;;4.10;1.40;;;13.50;56.20;;;;;;5133331;27;21013;-78
2024/01/16 10:20:53;;;;;;;2.60;1.57;;;13.50;56.30;;;;;;5133409;27;20445;-78
2024/01/16 10:23:25;;;;;;;2.30;1.33;;;13.50;56.40;;;;;;5134057;27;20435;-78
2024/01/16 10:26:10;;;;;;;1.40;1.30;;;13.50;56.40;;;;;;5133231;27;20514;-77
2024/01/16 10:28:39;;;;;;;1.63;1.53;;;13.50;56.50;;;;;;5133510;27;20846;-78
2024/01/16 10:31:08;;;;;;;1.87;1.50;;;13.50;56.40;;;;;;5132391;27;20546;-78
2024/01/16 10:33:39;;;;;;;1.57;1.37;;;13.50;56.80;;;;;;5132939;27;20474;-77
2024/01/16 10:36:11;;;;;;;2.10;1.70;;;13.60;56.80;;;;;;5133087;27;20465;-78
2024/01/16 10:38:39;;;;;;;4.33;1.90;;;13.60;56.70;;;;;;5132633;27;20470;-76
2024/01/16 10:41:11;;;;;;;1.80;1.50;;;13.60;56.60;;;;;;5132504;27;20545;-77
2024/01/16 10:43:39;;;;;;;1.90;1.40;;;13.60;56.70;;;;;;5132713;27;20423;-79
2024/01/16 10:46:11;;;;;;;1.40;1.30;;;13.60;56.80;;;;;;5132734;27;20458;-79
2024/01/16 10:48:42;;;;;;;1.90;1.40;;;13.60;56.60;;;;;;5133145;27;20805;-78
2024/01/16 10:51:12;;;;;;;1.77;1.40;;;13.60;56.60;;;;;;5132268;27;21026;-78
2024/01/16 10:53:42;;;;;;;2.47;1.50;;;13.60;56.60;;;;;;5133303;27;20505;-78
2024/01/16 10:56:12;;;;;;;3.80;1.83;;;13.50;56.60;;;;;;5133663;27;20439;-78
2024/01/16 10:58:41;;;;;;;2.80;1.70;;;13.50;56.70;;;;;;5133788;27;20449;-77
2024/01/16 11:01:11;;;;;;;1.63;1.33;;;13.50;56.80;;;;;;5131969;27;20481;-75
2024/01/16 11:03:43;;;;;;;1.50;1.40;;;13.50;56.80;;;;;;5132433;27;20477;-76
2024/01/16 11:06:11;;;;;;;2.03;1.63;;;13.50;56.80;;;;;;5132829;27;20424;-79
2024/01/16 11:08:40;;;;;;;2.47;1.50;;;13.50;56.80;;;;;;5132784;27;20456;-78
2024/01/16 11:11:08;;;;;;;1.67;1.57;;;13.50;56.80;;;;;;5131346;27;20544;-78
2024/01/16 11:13:39;;;;;;;3.70;1.60;;;13.40;56.80;;;;;;5133651;27;20439;-80
2024/01/16 11:16:07;;;;;;;2.07;1.57;;;13.50;57.00;;;;;;5133277;27;20466;-77
2024/01/16 11:18:36;;;;;;;2.87;1.50;;;13.50;57.10;;;;;;5132525;27;20865;-78
2024/01/16 11:21:06;;;;;;;2.30;1.33;;;13.50;56.90;;;;;;5131246;27;20451;-79
2024/01/16 11:23:38;;;;;;;1.40;1.30;;;13.50;57.00;;;;;;5132556;27;20913;-77
2024/01/16 11:26:25;;;;;;;3.93;1.60;;;13.50;56.80;;;;;;5132615;27;20434;-78
2024/01/16 11:28:56;;;;;;;1.70;1.60;;;13.50;56.80;;;;;;5131932;27;20423;-78
2024/01/16 11:31:31;;;;;;;3.30;1.57;;;13.50;56.90;;;;;;5131668;27;20447;-77
2024/01/16 11:34:00;;;;;;;2.80;1.63;;;13.50;56.80;;;;;;5131951;27;20462;-77
2024/01/16 11:36:50;;;;;;;2.20;1.83;;;13.50;56.90;;;;;;5132990;27;20484;-76
2024/01/16 11:39:18;;;;;;;3.03;1.83;;;13.50;56.80;;;;;;5132834;27;20431;-80
2024/01/16 11:41:53;;;;;;;4.73;3.03;;;13.40;56.90;;;;;;5132365;27;20511;-78
2024/01/16 11:44:46;;;;;;;2.50;2.30;;;13.40;56.90;;;;;;5132111;27;20462;-77
2024/01/16 11:47:17;;;;;;;7.63;2.27;;;13.40;57.00;;;;;;5132713;27;20439;-77
2024/01/16 11:49:45;;;;;;;3.93;2.73;;;13.40;57.10;;;;;;5132314;27;20439;-78
2024/01/16 11:52:14;;;;;;;2.60;2.40;;;13.40;57.10;;;;;;5131758;28;20509;-78
2024/01/16 11:54:42;;;;;;;3.20;2.80;;;13.30;57.00;;;;;;5132156;27;20924;-77
2024/01/16 11:57:33;;;;;;;6.43;3.10;;;13.30;57.00;;;;;;5132754;28;20492;-77
2024/01/16 12:00:12;;;;;;;4.70;3.33;;;13.30;57.10;;;;;;5132381;27;20496;-78
2024/01/16 12:02:47;;;;;;;4.90;3.03;;;13.30;57.20;;;;;;5132208;28;20443;-79
2024/01/16 12:05:15;;;;;;;4.93;3.33;;;13.30;57.20;;;;;;5132997;28;21045;-80
2024/01/16 12:07:46;;;;;;;4.77;3.33;;;13.30;57.20;;;;;;5132923;27;20435;-79
2024/01/16 12:10:14;;;;;;;7.97;3.93;;;13.30;57.30;;;;;;5132003;28;20451;-79
2024/01/16 12:12:42;;;;;;;3.90;3.33;;;13.30;57.30;;;;;;5131714;28;20467;-80
2024/01/16 12:15:17;;;;;;;4.13;3.17;;;13.30;57.40;;;;;;5131940;27;20475;-77
2024/01/16 12:17:55;;;;;;;6.23;3.73;;;13.30;57.30;;;;;;5132091;28;20435;-78
2024/01/16 12:20:25;;;;;;;5.13;3.43;;;13.30;57.40;;;;;;5132376;27;20438;-76
2024/01/16 12:22:58;;;;;;;6.57;3.83;;;13.30;57.30;;;;;;5131726;27;20470;-76
2024/01/16 12:25:26;;;;;;;7.97;4.13;;;13.30;57.50;;;;;;5133332;27;20485;-76
2024/01/16 12:28:17;;;;;;;8.90;4.13;;;13.30;57.40;;;;;;5132463;27;20431;-75
2024/01/16 12:31:00;;;;;;;5.83;3.90;;;13.30;57.40;;;;;;5132652;28;20545;-76
2024/01/16 12:33:30;;;;;;;5.23;3.80;;;13.30;57.40;;;;;;5131283;27;20447;-77
2024/01/16 12:36:02;;;;;;;5.93;3.90;;;13.30;57.60;;;;;;5131502;28;20471;-76
2024/01/16 12:38:30;;;;;;;6.57;4.30;;;13.30;57.50;;;;;;5131679;27;20491;-76
2024/01/16 12:40:58;;;;;;;7.20;3.50;;;13.30;57.60;;;;;;5147324;27;20538;-76
2024/01/16 12:43:26;;;;;;;9.23;4.53;;;13.30;57.50;;;;;;5158079;27;20456;-76
2024/01/16 12:45:57;;;;;;;6.97;4.30;;;13.30;57.60;;;;;;5163524;27;20422;-77
2024/01/16 12:48:26;;;;;;;5.10;4.37;;;13.30;57.60;;;;;;5148544;27;20450;-76
2024/01/16 12:51:00;;;;;;;7.57;4.37;;;13.20;57.60;;;;;;5145912;27;20456;-76
2024/01/16 12:53:28;;;;;;;5.53;4.30;;;13.30;57.60;;;;;;5136897;27;20959;-76
2024/01/16 12:56:00;;;;;;;6.60;4.30;;;13.30;57.70;;;;;;5136002;27;20466;-76
2024/01/16 12:58:34;;;;;;;6.00;4.40;;;13.30;57.70;;;;;;5132023;27;20541;-75
2024/01/16 13:01:24;;;;;;;6.23;4.23;;;13.30;57.70;;;;;;5134809;27;20535;-75